sensor_id;sensor_type;location;lat;lon;timestamp;P1;durP1;ratioP1;P2;durP2;ratioP2
64795;SDS011;51229;51.980;6.722;2023-05-10T00:00:14;6.97;;;4.65;;
64795;SDS011;51229;51.980;6.722;2023-05-10T00:02:41;7.13;;;4.50;;
64795;SDS011;51229;51.980;6.722;2023-05-10T00:05:08;7.53;;;5.03;;
64795;SDS011;51229;51.980;6.722;2023-05-10T00:07:34;7.75;;;4.00;;
64795;SDS011;51229;51.980;6.722;2023-05-10T00:09:59;5.65;;;3.33;;
64795;SDS011;51229;51.980;6.722;2023-05-10T00:12:25;5.40;;;3.15;;
64795;SDS011;51229;51.980;6.722;2023-05-10T00:14:51;5.35;;;2.90;;
64795;SDS011;51229;51.980;6.722;2023-05-10T00:17:16;5.00;;;2.35;;
64795;SDS011;51229;51.980;6.722;2023-05-10T00:19:42;6.20;;;2.70;;
64795;SDS011;51229;51.980;6.722;2023-05-10T00:22:08;4.20;;;2.30;;
64795;SDS011;51229;51.980;6.722;2023-05-10T00:24:33;4.15;;;2.30;;
64795;SDS011;51229;51.980;6.722;2023-05-10T00:26:59;3.22;;;1.80;;
64795;SDS011;51229;51.980;6.722;2023-05-10T00:29:25;5.22;;;2.58;;
64795;SDS011;51229;51.980;6.722;2023-05-10T00:31:53;4.35;;;2.40;;
64795;SDS011;51229;51.980;6.722;2023-05-10T00:34:18;4.45;;;2.65;;
64795;SDS011;51229;51.980;6.722;2023-05-10T00:36:44;4.65;;;2.38;;
64795;SDS011;51229;51.980;6.722;2023-05-10T00:39:10;4.53;;;2.50;;
64795;SDS011;51229;51.980;6.722;2023-05-10T00:41:36;5.03;;;2.40;;
64795;SDS011;51229;51.980;6.722;2023-05-10T00:44:03;7.00;;;2.53;;
64795;SDS011;51229;51.980;6.722;2023-05-10T00:46:29;5.32;;;3.03;;
64795;SDS011;51229;51.980;6.722;2023-05-10T00:48:57;5.93;;;3.05;;
64795;SDS011;51229;51.980;6.722;2023-05-10T00:51:23;5.38;;;2.85;;
64795;SDS011;51229;51.980;6.722;2023-05-10T00:53:49;5.40;;;2.90;;
64795;SDS011;51229;51.980;6.722;2023-05-10T00:56:16;5.32;;;3.20;;
64795;SDS011;51229;51.980;6.722;2023-05-10T00:58:42;5.43;;;3.38;;
64795;SDS011;51229;51.980;6.722;2023-05-10T01:01:08;5.20;;;3.17;;
64795;SDS011;51229;51.980;6.722;2023-05-10T01:03:34;5.45;;;2.92;;
64795;SDS011;51229;51.980;6.722;2023-05-10T01:06:01;5.60;;;3.70;;
64795;SDS011;51229;51.980;6.722;2023-05-10T01:08:26;6.13;;;3.53;;
64795;SDS011;51229;51.980;6.722;2023-05-10T01:10:53;7.90;;;3.30;;
64795;SDS011;51229;51.980;6.722;2023-05-10T01:13:36;5.93;;;3.47;;
64795;SDS011;51229;51.980;6.722;2023-05-10T01:16:03;5.95;;;3.45;;
64795;SDS011;51229;51.980;6.722;2023-05-10T01:18:34;5.90;;;3.70;;
64795;SDS011;51229;51.980;6.722;2023-05-10T01:43:35;6.82;;;4.05;;
64795;SDS011;51229;51.980;6.722;2023-05-10T01:46:10;6.55;;;4.28;;
64795;SDS011;51229;51.980;6.722;2023-05-10T01:48:51;5.93;;;3.92;;
64795;SDS011;51229;51.980;6.722;2023-05-10T01:51:23;6.93;;;4.00;;
64795;SDS011;51229;51.980;6.722;2023-05-10T01:53:54;5.90;;;3.33;;
64795;SDS011;51229;51.980;6.722;2023-05-10T01:56:24;7.50;;;4.18;;
64795;SDS011;51229;51.980;6.722;2023-05-10T01:58:53;5.82;;;3.90;;
64795;SDS011;51229;51.980;6.722;2023-05-10T02:01:20;5.65;;;3.72;;
64795;SDS011;51229;51.980;6.722;2023-05-10T02:03:47;7.95;;;4.93;;
64795;SDS011;51229;51.980;6.722;2023-05-10T02:06:15;7.15;;;5.03;;
64795;SDS011;51229;51.980;6.722;2023-05-10T02:08:43;6.72;;;4.65;;
64795;SDS011;51229;51.980;6.722;2023-05-10T02:11:12;6.40;;;4.13;;
64795;SDS011;51229;51.980;6.722;2023-05-10T02:13:39;7.60;;;4.85;;
64795;SDS011;51229;51.980;6.722;2023-05-10T02:16:06;7.85;;;4.90;;
64795;SDS011;51229;51.980;6.722;2023-05-10T02:18:33;8.50;;;5.70;;
64795;SDS011;51229;51.980;6.722;2023-05-10T02:21:01;10.13;;;6.15;;
64795;SDS011;51229;51.980;6.722;2023-05-10T02:23:28;7.82;;;4.88;;
64795;SDS011;51229;51.980;6.722;2023-05-10T02:25:55;8.43;;;5.72;;
64795;SDS011;51229;51.980;6.722;2023-05-10T02:28:22;6.65;;;4.40;;
64795;SDS011;51229;51.980;6.722;2023-05-10T02:30:50;7.80;;;5.03;;
64795;SDS011;51229;51.980;6.722;2023-05-10T02:33:17;9.23;;;5.00;;
64795;SDS011;51229;51.980;6.722;2023-05-10T02:35:44;8.77;;;5.65;;
64795;SDS011;51229;51.980;6.722;2023-05-10T02:38:11;7.05;;;4.28;;
64795;SDS011;51229;51.980;6.722;2023-05-10T02:40:38;11.50;;;6.78;;
64795;SDS011;51229;51.980;6.722;2023-05-10T02:43:06;9.02;;;5.60;;
64795;SDS011;51229;51.980;6.722;2023-05-10T02:45:37;11.30;;;6.35;;
64795;SDS011;51229;51.980;6.722;2023-05-10T02:48:04;10.57;;;6.93;;
64795;SDS011;51229;51.980;6.722;2023-05-10T02:50:31;10.77;;;6.80;;
64795;SDS011;51229;51.980;6.722;2023-05-10T02:53:03;11.90;;;7.03;;
64795;SDS011;51229;51.980;6.722;2023-05-10T02:55:40;13.60;;;7.03;;
64795;SDS011;51229;51.980;6.722;2023-05-10T02:58:08;11.98;;;7.15;;
64795;SDS011;51229;51.980;6.722;2023-05-10T03:00:34;12.52;;;6.75;;
64795;SDS011;51229;51.980;6.722;2023-05-10T03:03:01;13.43;;;6.97;;
64795;SDS011;51229;51.980;6.722;2023-05-10T03:05:27;13.40;;;8.00;;
64795;SDS011;51229;51.980;6.722;2023-05-10T03:07:58;15.73;;;8.73;;
64795;SDS011;51229;51.980;6.722;2023-05-10T03:10:26;16.92;;;9.07;;
64795;SDS011;51229;51.980;6.722;2023-05-10T03:15:47;20.35;;;10.85;;
64795;SDS011;51229;51.980;6.722;2023-05-10T03:18:37;15.45;;;8.65;;
64795;SDS011;51229;51.980;6.722;2023-05-10T03:21:19;15.63;;;8.23;;
64795;SDS011;51229;51.980;6.722;2023-05-10T03:23:53;19.83;;;10.60;;
64795;SDS011;51229;51.980;6.722;2023-05-10T03:26:34;19.63;;;11.18;;
64795;SDS011;51229;51.980;6.722;2023-05-10T03:29:08;20.92;;;10.77;;
64795;SDS011;51229;51.980;6.722;2023-05-10T03:31:35;21.10;;;10.40;;
64795;SDS011;51229;51.980;6.722;2023-05-10T03:34:01;21.85;;;12.07;;
64795;SDS011;51229;51.980;6.722;2023-05-10T03:36:27;20.10;;;10.15;;
64795;SDS011;51229;51.980;6.722;2023-05-10T03:38:54;21.08;;;10.23;;
64795;SDS011;51229;51.980;6.722;2023-05-10T03:41:20;25.27;;;13.05;;
64795;SDS011;51229;51.980;6.722;2023-05-10T03:43:46;24.30;;;12.55;;
64795;SDS011;51229;51.980;6.722;2023-05-10T03:46:12;24.70;;;12.40;;
64795;SDS011;51229;51.980;6.722;2023-05-10T03:48:38;27.50;;;14.02;;
64795;SDS011;51229;51.980;6.722;2023-05-10T03:51:04;22.52;;;12.00;;
64795;SDS011;51229;51.980;6.722;2023-05-10T03:53:30;28.77;;;14.00;;
64795;SDS011;51229;51.980;6.722;2023-05-10T03:55:55;29.23;;;14.57;;
64795;SDS011;51229;51.980;6.722;2023-05-10T03:58:21;31.55;;;14.80;;
64795;SDS011;51229;51.980;6.722;2023-05-10T04:00:47;28.35;;;13.75;;
64795;SDS011;51229;51.980;6.722;2023-05-10T04:03:13;28.02;;;13.65;;
64795;SDS011;51229;51.980;6.722;2023-05-10T04:05:39;27.25;;;13.93;;
64795;SDS011;51229;51.980;6.722;2023-05-10T04:08:05;27.70;;;14.02;;
64795;SDS011;51229;51.980;6.722;2023-05-10T04:10:31;27.90;;;14.80;;
64795;SDS011;51229;51.980;6.722;2023-05-10T04:12:57;26.58;;;13.82;;
64795;SDS011;51229;51.980;6.722;2023-05-10T04:15:23;28.75;;;14.75;;
64795;SDS011;51229;51.980;6.722;2023-05-10T04:17:49;32.15;;;16.70;;
64795;SDS011;51229;51.980;6.722;2023-05-10T04:20:15;27.88;;;13.73;;
64795;SDS011;51229;51.980;6.722;2023-05-10T04:22:41;34.28;;;17.77;;
64795;SDS011;51229;51.980;6.722;2023-05-10T04:25:07;34.88;;;17.63;;
64795;SDS011;51229;51.980;6.722;2023-05-10T04:27:33;36.38;;;18.05;;
64795;SDS011;51229;51.980;6.722;2023-05-10T04:29:58;37.40;;;18.60;;
64795;SDS011;51229;51.980;6.722;2023-05-10T04:32:24;37.67;;;18.40;;
64795;SDS011;51229;51.980;6.722;2023-05-10T04:34:50;38.63;;;18.63;;
64795;SDS011;51229;51.980;6.722;2023-05-10T04:37:17;32.65;;;16.83;;
64795;SDS011;51229;51.980;6.722;2023-05-10T04:39:45;33.40;;;16.63;;
64795;SDS011;51229;51.980;6.722;2023-05-10T04:42:10;31.38;;;16.65;;
64795;SDS011;51229;51.980;6.722;2023-05-10T04:44:36;35.70;;;17.40;;
64795;SDS011;51229;51.980;6.722;2023-05-10T04:47:02;30.63;;;15.50;;
64795;SDS011;51229;51.980;6.722;2023-05-10T04:49:28;38.30;;;18.15;;
64795;SDS011;51229;51.980;6.722;2023-05-10T04:51:55;34.97;;;15.82;;
64795;SDS011;51229;51.980;6.722;2023-05-10T04:54:20;32.53;;;16.73;;
64795;SDS011;51229;51.980;6.722;2023-05-10T04:56:46;36.83;;;18.92;;
64795;SDS011;51229;51.980;6.722;2023-05-10T04:59:12;34.65;;;18.20;;
64795;SDS011;51229;51.980;6.722;2023-05-10T05:01:37;35.58;;;18.27;;
64795;SDS011;51229;51.980;6.722;2023-05-10T05:04:03;31.08;;;15.35;;
64795;SDS011;51229;51.980;6.722;2023-05-10T05:06:29;34.78;;;17.40;;
64795;SDS011;51229;51.980;6.722;2023-05-10T05:08:54;32.10;;;16.48;;
64795;SDS011;51229;51.980;6.722;2023-05-10T05:11:20;39.33;;;19.25;;
64795;SDS011;51229;51.980;6.722;2023-05-10T05:13:46;39.00;;;19.10;;
64795;SDS011;51229;51.980;6.722;2023-05-10T05:16:11;41.22;;;19.60;;
64795;SDS011;51229;51.980;6.722;2023-05-10T05:18:37;37.83;;;19.58;;
64795;SDS011;51229;51.980;6.722;2023-05-10T05:21:03;38.72;;;20.38;;
64795;SDS011;51229;51.980;6.722;2023-05-10T05:23:39;34.33;;;17.52;;
64795;SDS011;51229;51.980;6.722;2023-05-10T05:26:05;39.80;;;19.55;;
64795;SDS011;51229;51.980;6.722;2023-05-10T05:28:30;38.80;;;19.40;;
64795;SDS011;51229;51.980;6.722;2023-05-10T05:30:59;35.92;;;18.15;;
64795;SDS011;51229;51.980;6.722;2023-05-10T05:33:24;40.60;;;20.67;;
64795;SDS011;51229;51.980;6.722;2023-05-10T05:35:50;38.58;;;19.75;;
64795;SDS011;51229;51.980;6.722;2023-05-10T05:38:16;35.10;;;17.67;;
64795;SDS011;51229;51.980;6.722;2023-05-10T05:40:42;37.53;;;18.58;;
64795;SDS011;51229;51.980;6.722;2023-05-10T05:43:08;42.13;;;19.27;;
64795;SDS011;51229;51.980;6.722;2023-05-10T05:45:34;38.28;;;18.25;;
64795;SDS011;51229;51.980;6.722;2023-05-10T05:47:59;40.22;;;18.65;;
64795;SDS011;51229;51.980;6.722;2023-05-10T05:50:25;40.50;;;19.80;;
64795;SDS011;51229;51.980;6.722;2023-05-10T05:52:51;46.00;;;21.67;;
64795;SDS011;51229;51.980;6.722;2023-05-10T05:55:17;42.05;;;18.98;;
64795;SDS011;51229;51.980;6.722;2023-05-10T05:57:42;43.58;;;19.80;;
64795;SDS011;51229;51.980;6.722;2023-05-10T06:00:08;45.58;;;20.90;;
64795;SDS011;51229;51.980;6.722;2023-05-10T06:02:43;42.85;;;19.45;;
64795;SDS011;51229;51.980;6.722;2023-05-10T06:05:09;48.05;;;20.92;;
64795;SDS011;51229;51.980;6.722;2023-05-10T06:07:34;39.33;;;17.45;;
64795;SDS011;51229;51.980;6.722;2023-05-10T06:10:00;47.85;;;21.15;;
64795;SDS011;51229;51.980;6.722;2023-05-10T06:12:26;40.92;;;19.20;;
64795;SDS011;51229;51.980;6.722;2023-05-10T06:14:51;42.83;;;19.70;;
64795;SDS011;51229;51.980;6.722;2023-05-10T06:17:17;41.20;;;18.52;;
64795;SDS011;51229;51.980;6.722;2023-05-10T06:19:43;44.55;;;19.33;;
64795;SDS011;51229;51.980;6.722;2023-05-10T06:22:08;44.72;;;20.60;;
64795;SDS011;51229;51.980;6.722;2023-05-10T06:24:34;41.22;;;19.48;;
64795;SDS011;51229;51.980;6.722;2023-05-10T06:27:00;35.70;;;16.23;;
64795;SDS011;51229;51.980;6.722;2023-05-10T06:29:26;44.63;;;19.45;;
64795;SDS011;51229;51.980;6.722;2023-05-10T06:31:52;43.35;;;19.42;;
64795;SDS011;51229;51.980;6.722;2023-05-10T06:34:19;46.88;;;20.75;;
64795;SDS011;51229;51.980;6.722;2023-05-10T06:36:44;40.00;;;18.58;;
64795;SDS011;51229;51.980;6.722;2023-05-10T06:39:10;41.17;;;18.15;;
64795;SDS011;51229;51.980;6.722;2023-05-10T06:41:37;38.55;;;17.98;;
64795;SDS011;51229;51.980;6.722;2023-05-10T06:44:02;36.50;;;17.45;;
64795;SDS011;51229;51.980;6.722;2023-05-10T06:46:28;34.92;;;14.77;;
64795;SDS011;51229;51.980;6.722;2023-05-10T06:48:54;30.88;;;15.52;;
64795;SDS011;51229;51.980;6.722;2023-05-10T06:51:20;38.90;;;17.00;;
64795;SDS011;51229;51.980;6.722;2023-05-10T06:53:46;34.83;;;16.25;;
64795;SDS011;51229;51.980;6.722;2023-05-10T06:56:12;38.88;;;17.10;;
64795;SDS011;51229;51.980;6.722;2023-05-10T06:58:38;34.97;;;16.45;;
64795;SDS011;51229;51.980;6.722;2023-05-10T07:01:04;37.13;;;18.35;;
64795;SDS011;51229;51.980;6.722;2023-05-10T07:03:30;33.00;;;16.05;;
64795;SDS011;51229;51.980;6.722;2023-05-10T07:06:00;30.88;;;16.08;;
64795;SDS011;51229;51.980;6.722;2023-05-10T07:08:32;34.10;;;15.75;;
64795;SDS011;51229;51.980;6.722;2023-05-10T07:11:05;37.97;;;17.65;;
64795;SDS011;51229;51.980;6.722;2023-05-10T07:13:34;35.80;;;16.65;;
64795;SDS011;51229;51.980;6.722;2023-05-10T07:16:00;37.80;;;17.25;;
64795;SDS011;51229;51.980;6.722;2023-05-10T07:18:27;34.58;;;16.77;;
64795;SDS011;51229;51.980;6.722;2023-05-10T07:20:52;36.65;;;17.50;;
64795;SDS011;51229;51.980;6.722;2023-05-10T07:23:18;33.88;;;16.55;;
64795;SDS011;51229;51.980;6.722;2023-05-10T07:25:45;33.30;;;16.05;;
64795;SDS011;51229;51.980;6.722;2023-05-10T07:28:11;39.47;;;18.02;;
64795;SDS011;51229;51.980;6.722;2023-05-10T07:30:38;31.63;;;16.00;;
64795;SDS011;51229;51.980;6.722;2023-05-10T07:33:04;37.92;;;17.42;;
64795;SDS011;51229;51.980;6.722;2023-05-10T07:35:29;37.63;;;18.38;;
64795;SDS011;51229;51.980;6.722;2023-05-10T07:37:55;34.25;;;16.35;;
64795;SDS011;51229;51.980;6.722;2023-05-10T07:40:21;33.40;;;15.68;;
64795;SDS011;51229;51.980;6.722;2023-05-10T07:42:46;43.03;;;19.42;;
64795;SDS011;51229;51.980;6.722;2023-05-10T07:45:12;34.17;;;16.80;;
64795;SDS011;51229;51.980;6.722;2023-05-10T07:47:38;38.70;;;19.65;;
64795;SDS011;51229;51.980;6.722;2023-05-10T07:50:03;39.05;;;18.80;;
64795;SDS011;51229;51.980;6.722;2023-05-10T07:52:29;43.10;;;18.50;;
64795;SDS011;51229;51.980;6.722;2023-05-10T07:54:55;40.13;;;19.10;;
64795;SDS011;51229;51.980;6.722;2023-05-10T07:57:22;36.42;;;18.02;;
64795;SDS011;51229;51.980;6.722;2023-05-10T07:59:47;40.42;;;19.90;;
64795;SDS011;51229;51.980;6.722;2023-05-10T08:02:13;39.88;;;19.13;;
64795;SDS011;51229;51.980;6.722;2023-05-10T08:04:38;38.03;;;18.70;;
64795;SDS011;51229;51.980;6.722;2023-05-10T08:07:04;32.97;;;16.67;;
64795;SDS011;51229;51.980;6.722;2023-05-10T08:09:30;40.45;;;20.15;;
64795;SDS011;51229;51.980;6.722;2023-05-10T08:11:55;38.08;;;18.25;;
64795;SDS011;51229;51.980;6.722;2023-05-10T08:14:21;38.63;;;20.95;;
64795;SDS011;51229;51.980;6.722;2023-05-10T08:16:47;32.53;;;17.02;;
64795;SDS011;51229;51.980;6.722;2023-05-10T08:19:13;36.30;;;18.08;;
64795;SDS011;51229;51.980;6.722;2023-05-10T08:21:38;32.40;;;17.60;;
64795;SDS011;51229;51.980;6.722;2023-05-10T08:24:07;34.28;;;18.15;;
64795;SDS011;51229;51.980;6.722;2023-05-10T08:26:33;34.22;;;17.27;;
64795;SDS011;51229;51.980;6.722;2023-05-10T08:28:58;35.63;;;18.35;;
64795;SDS011;51229;51.980;6.722;2023-05-10T08:31:24;35.08;;;18.38;;
64795;SDS011;51229;51.980;6.722;2023-05-10T08:33:50;32.88;;;18.15;;
64795;SDS011;51229;51.980;6.722;2023-05-10T08:36:17;34.22;;;17.75;;
64795;SDS011;51229;51.980;6.722;2023-05-10T08:38:48;32.75;;;17.08;;
64795;SDS011;51229;51.980;6.722;2023-05-10T08:41:19;36.55;;;18.77;;
64795;SDS011;51229;51.980;6.722;2023-05-10T08:43:46;31.55;;;17.23;;
64795;SDS011;51229;51.980;6.722;2023-05-10T08:46:13;31.20;;;15.73;;
64795;SDS011;51229;51.980;6.722;2023-05-10T08:48:45;29.48;;;15.73;;
64795;SDS011;51229;51.980;6.722;2023-05-10T08:51:15;28.77;;;15.60;;
64795;SDS011;51229;51.980;6.722;2023-05-10T08:53:43;30.95;;;16.75;;
64795;SDS011;51229;51.980;6.722;2023-05-10T08:56:10;25.17;;;13.80;;
64795;SDS011;51229;51.980;6.722;2023-05-10T08:58:36;24.98;;;13.88;;
64795;SDS011;51229;51.980;6.722;2023-05-10T09:01:02;27.67;;;15.60;;
64795;SDS011;51229;51.980;6.722;2023-05-10T09:03:29;27.10;;;14.93;;
64795;SDS011;51229;51.980;6.722;2023-05-10T09:05:56;24.67;;;14.30;;
64795;SDS011;51229;51.980;6.722;2023-05-10T09:08:22;27.77;;;14.77;;
64795;SDS011;51229;51.980;6.722;2023-05-10T09:10:51;23.83;;;11.32;;
64795;SDS011;51229;51.980;6.722;2023-05-10T09:13:17;24.08;;;13.80;;
64795;SDS011;51229;51.980;6.722;2023-05-10T09:15:44;26.33;;;13.93;;
64795;SDS011;51229;51.980;6.722;2023-05-10T09:18:11;25.70;;;13.45;;
64795;SDS011;51229;51.980;6.722;2023-05-10T09:20:37;28.75;;;14.82;;
64795;SDS011;51229;51.980;6.722;2023-05-10T09:23:03;26.00;;;15.00;;
64795;SDS011;51229;51.980;6.722;2023-05-10T09:25:29;27.83;;;14.93;;
64795;SDS011;51229;51.980;6.722;2023-05-10T09:27:55;29.58;;;14.88;;
64795;SDS011;51229;51.980;6.722;2023-05-10T09:30:24;23.90;;;13.30;;
64795;SDS011;51229;51.980;6.722;2023-05-10T09:32:51;26.00;;;14.32;;
64795;SDS011;51229;51.980;6.722;2023-05-10T09:35:18;25.58;;;13.38;;
64795;SDS011;51229;51.980;6.722;2023-05-10T09:37:49;25.25;;;13.55;;
64795;SDS011;51229;51.980;6.722;2023-05-10T09:40:16;24.35;;;13.48;;
64795;SDS011;51229;51.980;6.722;2023-05-10T09:42:43;25.10;;;13.07;;
64795;SDS011;51229;51.980;6.722;2023-05-10T09:45:22;21.58;;;12.75;;
64795;SDS011;51229;51.980;6.722;2023-05-10T09:47:49;21.67;;;13.10;;
64795;SDS011;51229;51.980;6.722;2023-05-10T09:50:14;25.65;;;13.45;;
64795;SDS011;51229;51.980;6.722;2023-05-10T09:52:51;23.95;;;13.43;;
64795;SDS011;51229;51.980;6.722;2023-05-10T09:55:25;20.35;;;11.98;;
64795;SDS011;51229;51.980;6.722;2023-05-10T09:58:03;22.20;;;12.25;;
64795;SDS011;51229;51.980;6.722;2023-05-10T10:00:49;21.00;;;12.23;;
64795;SDS011;51229;51.980;6.722;2023-05-10T10:03:18;20.80;;;11.60;;
64795;SDS011;51229;51.980;6.722;2023-05-10T10:05:45;23.42;;;11.90;;
64795;SDS011;51229;51.980;6.722;2023-05-10T10:08:12;21.83;;;12.32;;
64795;SDS011;51229;51.980;6.722;2023-05-10T10:10:39;25.23;;;13.98;;
64795;SDS011;51229;51.980;6.722;2023-05-10T10:13:05;32.30;;;15.43;;
64795;SDS011;51229;51.980;6.722;2023-05-10T10:15:32;27.60;;;14.40;;
64795;SDS011;51229;51.980;6.722;2023-05-10T10:18:01;27.77;;;14.02;;
64795;SDS011;51229;51.980;6.722;2023-05-10T10:20:29;25.80;;;14.15;;
64795;SDS011;51229;51.980;6.722;2023-05-10T10:22:55;24.63;;;14.35;;
64795;SDS011;51229;51.980;6.722;2023-05-10T10:25:21;27.60;;;14.27;;
64795;SDS011;51229;51.980;6.722;2023-05-10T10:35:19;27.70;;;13.07;;
64795;SDS011;51229;51.980;6.722;2023-05-10T10:37:47;23.77;;;13.45;;
64795;SDS011;51229;51.980;6.722;2023-05-10T10:40:28;24.48;;;13.63;;
64795;SDS011;51229;51.980;6.722;2023-05-10T10:42:55;27.45;;;14.20;;
64795;SDS011;51229;51.980;6.722;2023-05-10T10:45:22;24.65;;;14.52;;
64795;SDS011;51229;51.980;6.722;2023-05-10T10:47:49;27.10;;;14.68;;
64795;SDS011;51229;51.980;6.722;2023-05-10T10:50:44;29.38;;;16.90;;
64795;SDS011;51229;51.980;6.722;2023-05-10T10:53:11;29.88;;;15.63;;
64795;SDS011;51229;51.980;6.722;2023-05-10T10:55:47;28.92;;;16.75;;
64795;SDS011;51229;51.980;6.722;2023-05-10T10:58:29;27.83;;;14.50;;
64795;SDS011;51229;51.980;6.722;2023-05-10T11:01:10;26.02;;;14.32;;
64795;SDS011;51229;51.980;6.722;2023-05-10T11:03:40;23.10;;;13.35;;
64795;SDS011;51229;51.980;6.722;2023-05-10T11:06:28;25.40;;;14.52;;
64795;SDS011;51229;51.980;6.722;2023-05-10T11:08:58;26.08;;;15.45;;
64795;SDS011;51229;51.980;6.722;2023-05-10T11:11:30;24.92;;;15.23;;
64795;SDS011;51229;51.980;6.722;2023-05-10T11:13:56;27.58;;;14.27;;
64795;SDS011;51229;51.980;6.722;2023-05-10T11:16:28;26.67;;;14.73;;
64795;SDS011;51229;51.980;6.722;2023-05-10T11:19:08;23.67;;;13.55;;
64795;SDS011;51229;51.980;6.722;2023-05-10T11:21:50;25.60;;;12.60;;
64795;SDS011;51229;51.980;6.722;2023-05-10T11:24:36;22.27;;;13.43;;
64795;SDS011;51229;51.980;6.722;2023-05-10T11:27:01;21.90;;;12.85;;
64795;SDS011;51229;51.980;6.722;2023-05-10T11:29:27;24.90;;;13.27;;
64795;SDS011;51229;51.980;6.722;2023-05-10T11:31:53;22.92;;;13.25;;
64795;SDS011;51229;51.980;6.722;2023-05-10T11:34:26;27.00;;;14.13;;
64795;SDS011;51229;51.980;6.722;2023-05-10T11:36:55;24.48;;;13.93;;
64795;SDS011;51229;51.980;6.722;2023-05-10T11:39:21;24.90;;;14.30;;
64795;SDS011;51229;51.980;6.722;2023-05-10T11:41:54;27.45;;;15.90;;
64795;SDS011;51229;51.980;6.722;2023-05-10T11:44:19;25.65;;;13.70;;
64795;SDS011;51229;51.980;6.722;2023-05-10T11:46:45;25.58;;;13.93;;
64795;SDS011;51229;51.980;6.722;2023-05-10T11:49:11;25.42;;;13.88;;
64795;SDS011;51229;51.980;6.722;2023-05-10T11:51:38;24.77;;;15.23;;
64795;SDS011;51229;51.980;6.722;2023-05-10T11:54:08;25.73;;;14.73;;
64795;SDS011;51229;51.980;6.722;2023-05-10T11:56:36;26.15;;;15.00;;
64795;SDS011;51229;51.980;6.722;2023-05-10T11:59:03;25.27;;;14.43;;
64795;SDS011;51229;51.980;6.722;2023-05-10T12:01:30;24.40;;;13.50;;
64795;SDS011;51229;51.980;6.722;2023-05-10T12:03:56;23.92;;;13.60;;
64795;SDS011;51229;51.980;6.722;2023-05-10T12:06:26;23.77;;;13.82;;
64795;SDS011;51229;51.980;6.722;2023-05-10T12:08:53;22.92;;;13.25;;
64795;SDS011;51229;51.980;6.722;2023-05-10T12:11:19;23.42;;;13.90;;
64795;SDS011;51229;51.980;6.722;2023-05-10T12:13:46;23.25;;;13.35;;
64795;SDS011;51229;51.980;6.722;2023-05-10T12:16:19;20.35;;;10.82;;
64795;SDS011;51229;51.980;6.722;2023-05-10T12:18:50;20.90;;;12.98;;
64795;SDS011;51229;51.980;6.722;2023-05-10T12:21:17;20.50;;;12.55;;
64795;SDS011;51229;51.980;6.722;2023-05-10T12:23:45;20.05;;;12.15;;
64795;SDS011;51229;51.980;6.722;2023-05-10T12:26:12;17.90;;;11.25;;
64795;SDS011;51229;51.980;6.722;2023-05-10T12:28:38;19.20;;;10.57;;
64795;SDS011;51229;51.980;6.722;2023-05-10T12:31:06;16.80;;;9.90;;
64795;SDS011;51229;51.980;6.722;2023-05-10T12:33:36;18.58;;;10.60;;
64795;SDS011;51229;51.980;6.722;2023-05-10T12:36:04;15.63;;;9.45;;
64795;SDS011;51229;51.980;6.722;2023-05-10T12:38:35;16.35;;;9.77;;
64795;SDS011;51229;51.980;6.722;2023-05-10T12:41:03;14.63;;;8.83;;
64795;SDS011;51229;51.980;6.722;2023-05-10T12:43:34;15.65;;;9.57;;
64795;SDS011;51229;51.980;6.722;2023-05-10T12:46:21;14.52;;;9.35;;
64795;SDS011;51229;51.980;6.722;2023-05-10T12:48:50;15.27;;;9.57;;
64795;SDS011;51229;51.980;6.722;2023-05-10T12:51:19;14.93;;;9.05;;
64795;SDS011;51229;51.980;6.722;2023-05-10T12:53:48;14.50;;;9.32;;
64795;SDS011;51229;51.980;6.722;2023-05-10T12:56:14;14.15;;;8.55;;
64795;SDS011;51229;51.980;6.722;2023-05-10T12:58:39;14.75;;;8.82;;
64795;SDS011;51229;51.980;6.722;2023-05-10T13:01:06;14.98;;;9.50;;
64795;SDS011;51229;51.980;6.722;2023-05-10T13:03:31;12.68;;;7.45;;
64795;SDS011;51229;51.980;6.722;2023-05-10T13:05:57;12.13;;;6.72;;
64795;SDS011;51229;51.980;6.722;2023-05-10T13:08:23;11.20;;;6.65;;
64795;SDS011;51229;51.980;6.722;2023-05-10T13:10:49;12.85;;;7.25;;
64795;SDS011;51229;51.980;6.722;2023-05-10T13:13:15;12.10;;;6.72;;
64795;SDS011;51229;51.980;6.722;2023-05-10T13:15:40;11.55;;;6.80;;
64795;SDS011;51229;51.980;6.722;2023-05-10T13:18:06;9.95;;;5.18;;
64795;SDS011;51229;51.980;6.722;2023-05-10T13:20:32;10.13;;;6.20;;
64795;SDS011;51229;51.980;6.722;2023-05-10T13:22:57;10.75;;;6.20;;
64795;SDS011;51229;51.980;6.722;2023-05-10T13:25:23;10.63;;;6.05;;
64795;SDS011;51229;51.980;6.722;2023-05-10T13:27:49;10.00;;;5.80;;
64795;SDS011;51229;51.980;6.722;2023-05-10T13:30:15;12.43;;;7.03;;
64795;SDS011;51229;51.980;6.722;2023-05-10T13:32:41;9.77;;;6.20;;
64795;SDS011;51229;51.980;6.722;2023-05-10T13:35:07;12.57;;;6.43;;
64795;SDS011;51229;51.980;6.722;2023-05-10T13:37:33;10.32;;;6.03;;
64795;SDS011;51229;51.980;6.722;2023-05-10T13:40:02;11.20;;;5.68;;
64795;SDS011;51229;51.980;6.722;2023-05-10T13:42:29;10.15;;;5.82;;
64795;SDS011;51229;51.980;6.722;2023-05-10T13:44:54;10.85;;;6.63;;
64795;SDS011;51229;51.980;6.722;2023-05-10T13:47:20;8.77;;;5.55;;
64795;SDS011;51229;51.980;6.722;2023-05-10T13:49:47;9.40;;;5.80;;
64795;SDS011;51229;51.980;6.722;2023-05-10T13:52:12;8.68;;;5.13;;
64795;SDS011;51229;51.980;6.722;2023-05-10T13:54:38;7.55;;;4.35;;
64795;SDS011;51229;51.980;6.722;2023-05-10T13:57:04;8.07;;;4.80;;
64795;SDS011;51229;51.980;6.722;2023-05-10T13:59:30;7.53;;;4.40;;
64795;SDS011;51229;51.980;6.722;2023-05-10T14:01:57;7.07;;;4.20;;
64795;SDS011;51229;51.980;6.722;2023-05-10T14:04:23;6.05;;;3.50;;
64795;SDS011;51229;51.980;6.722;2023-05-10T14:06:49;7.10;;;4.25;;
64795;SDS011;51229;51.980;6.722;2023-05-10T14:09:14;6.63;;;3.83;;
64795;SDS011;51229;51.980;6.722;2023-05-10T14:11:40;8.10;;;4.00;;
64795;SDS011;51229;51.980;6.722;2023-05-10T14:14:08;6.65;;;3.50;;
64795;SDS011;51229;51.980;6.722;2023-05-10T14:16:34;7.15;;;3.90;;
64795;SDS011;51229;51.980;6.722;2023-05-10T14:19:00;6.93;;;3.55;;
64795;SDS011;51229;51.980;6.722;2023-05-10T14:21:26;5.38;;;3.45;;
64795;SDS011;51229;51.980;6.722;2023-05-10T14:23:53;6.93;;;3.83;;
64795;SDS011;51229;51.980;6.722;2023-05-10T14:26:20;5.90;;;3.15;;
64795;SDS011;51229;51.980;6.722;2023-05-10T14:28:46;6.53;;;3.85;;
64795;SDS011;51229;51.980;6.722;2023-05-10T14:31:12;7.97;;;4.25;;
64795;SDS011;51229;51.980;6.722;2023-05-10T14:33:39;8.18;;;4.00;;
64795;SDS011;51229;51.980;6.722;2023-05-10T14:36:05;15.02;;;4.57;;
64795;SDS011;51229;51.980;6.722;2023-05-10T14:38:31;5.93;;;3.40;;
64795;SDS011;51229;51.980;6.722;2023-05-10T14:40:58;12.35;;;4.75;;
64795;SDS011;51229;51.980;6.722;2023-05-10T14:43:23;7.60;;;3.72;;
64795;SDS011;51229;51.980;6.722;2023-05-10T14:45:49;6.25;;;3.45;;
64795;SDS011;51229;51.980;6.722;2023-05-10T14:48:15;6.57;;;3.83;;
64795;SDS011;51229;51.980;6.722;2023-05-10T14:50:42;10.25;;;4.35;;
64795;SDS011;51229;51.980;6.722;2023-05-10T14:53:08;6.47;;;3.75;;
64795;SDS011;51229;51.980;6.722;2023-05-10T14:55:34;6.60;;;3.72;;
64795;SDS011;51229;51.980;6.722;2023-05-10T14:58:01;8.52;;;4.25;;
64795;SDS011;51229;51.980;6.722;2023-05-10T15:00:28;7.43;;;3.95;;
64795;SDS011;51229;51.980;6.722;2023-05-10T15:02:54;6.22;;;4.00;;